createdAt,value
2018-02-03T00:00:25.546Z,968.83
2018-02-03T00:01:25.472Z,968.81
2018-02-03T00:02:25.380Z,968.81
2018-02-03T00:03:25.350Z,968.79
2018-02-03T00:04:25.248Z,968.82
2018-02-03T00:05:25.146Z,968.77
2018-02-03T00:06:25.045Z,968.77
2018-02-03T00:07:24.958Z,968.77
2018-02-03T00:08:24.874Z,968.77
2018-02-03T00:09:24.790Z,968.77
2018-02-03T00:10:24.720Z,968.76
2018-02-03T00:11:24.623Z,968.74
2018-02-03T00:12:24.536Z,968.75
2018-02-03T00:13:24.453Z,968.76
2018-02-03T00:14:24.367Z,968.77
2018-02-03T00:15:24.284Z,968.74
2018-02-03T00:16:24.200Z,968.72
2018-02-03T00:17:24.114Z,968.73
2018-02-03T00:18:24.041Z,968.75
2018-02-03T00:19:23.948Z,968.74
2018-02-03T00:20:23.862Z,968.71
2018-02-03T00:21:23.778Z,968.75
2018-02-03T00:22:23.694Z,968.73
2018-02-03T00:23:23.612Z,968.75
2018-02-03T00:24:23.524Z,968.76
2018-02-03T00:25:23.440Z,968.73
2018-02-03T00:26:23.358Z,968.73
2018-02-03T00:27:23.278Z,968.78
2018-02-03T00:28:23.188Z,968.80
2018-02-03T00:29:23.101Z,968.77
2018-02-03T00:30:23.018Z,968.74
2018-02-03T00:31:22.958Z,968.78
2018-02-03T00:32:22.853Z,968.75
2018-02-03T00:33:22.767Z,968.77
2018-02-03T00:34:22.685Z,968.75
2018-02-03T00:35:22.598Z,968.74
2018-02-03T00:36:22.513Z,968.73
2018-02-03T00:37:22.426Z,968.73
2018-02-03T00:38:22.343Z,968.75
2018-02-03T00:39:22.265Z,968.72
2018-02-03T00:40:22.175Z,968.72
2018-02-03T00:41:22.097Z,968.71
2018-02-03T00:42:22.005Z,968.68
2018-02-03T00:43:21.921Z,968.69
2018-02-03T00:44:21.847Z,968.71
2018-02-03T00:45:21.753Z,968.71
2018-02-03T00:46:21.669Z,968.74
2018-02-03T00:47:21.588Z,968.73
2018-02-03T00:48:21.507Z,968.73
2018-02-03T00:49:21.438Z,968.67
2018-02-03T00:50:21.331Z,968.67
2018-02-03T00:51:21.246Z,968.70
2018-02-03T00:52:21.163Z,968.68
2018-02-03T00:53:21.078Z,968.70
2018-02-03T00:54:20.996Z,968.69
2018-02-03T00:55:20.944Z,968.68
2018-02-03T00:56:20.826Z,968.67
2018-02-03T00:57:20.741Z,968.66
2018-02-03T00:58:20.670Z,968.67
2018-02-03T00:59:20.577Z,968.70
2018-02-03T01:00:20.485Z,968.64
2018-02-03T01:01:20.403Z,968.71
2018-02-03T01:02:20.324Z,968.68
2018-02-03T01:03:20.233Z,968.64
2018-02-03T01:04:20.149Z,968.65
2018-02-03T01:05:20.067Z,968.67
2018-02-03T01:06:19.983Z,968.65
2018-02-03T01:07:19.900Z,968.71
2018-02-03T01:08:19.813Z,968.69
2018-02-03T01:09:19.737Z,968.71
2018-02-03T01:10:19.644Z,968.72
2018-02-03T01:11:19.561Z,968.71
2018-02-03T01:12:19.475Z,968.70
2018-02-03T01:13:19.390Z,968.66
2018-02-03T01:14:19.306Z,968.67
2018-02-03T01:15:19.222Z,968.66
2018-02-03T01:16:19.135Z,968.65
2018-02-03T01:17:19.068Z,968.67
2018-02-03T01:18:18.968Z,968.63
2018-02-03T01:19:18.885Z,968.62
2018-02-03T01:20:18.802Z,968.60
2018-02-03T01:21:18.716Z,968.62
2018-02-03T01:22:18.632Z,968.61
2018-02-03T01:23:18.548Z,968.63
2018-02-03T01:24:18.465Z,968.64
2018-02-03T01:25:18.380Z,968.67
2018-02-03T01:26:18.293Z,968.67
2018-02-03T01:27:18.223Z,968.68
2018-02-03T01:28:18.128Z,968.66
2018-02-03T01:29:18.042Z,968.65
2018-02-03T01:30:17.957Z,968.67
2018-02-03T01:31:17.870Z,968.67
2018-02-03T01:32:17.792Z,968.69
2018-02-03T01:33:17.713Z,968.67
2018-02-03T01:34:17.621Z,968.66
2018-02-03T01:35:17.535Z,968.67
2018-02-03T01:36:17.449Z,968.67
2018-02-03T01:37:17.367Z,968.68
2018-02-03T01:38:17.280Z,968.67
2018-02-03T01:39:17.199Z,968.67
2018-02-03T01:40:17.117Z,968.70
2018-02-03T01:41:17.028Z,968.64
2018-02-03T01:42:16.942Z,968.62
2018-02-03T01:43:16.876Z,968.62
2018-02-03T01:44:16.775Z,968.60
2018-02-03T01:45:16.708Z,968.57
2018-02-03T01:46:16.606Z,968.60
2018-02-03T01:47:16.523Z,968.59
2018-02-03T01:48:16.436Z,968.59
2018-02-03T01:49:16.364Z,968.59
2018-02-03T01:50:16.270Z,968.56
2018-02-03T01:51:16.186Z,968.57
2018-02-03T01:52:16.098Z,968.54
2018-02-03T01:53:16.017Z,968.54
2018-02-03T01:54:15.929Z,968.54
2018-02-03T01:55:15.847Z,968.54
2018-02-03T01:56:15.763Z,968.52
2018-02-03T01:57:15.679Z,968.48
2018-02-03T01:58:15.599Z,968.47
2018-02-03T01:59:15.508Z,968.45
2018-02-03T02:00:15.424Z,968.46
2018-02-03T02:01:15.346Z,968.38
2018-02-03T02:02:15.256Z,968.41
2018-02-03T02:03:15.188Z,968.40
2018-02-03T02:04:15.085Z,968.38
2018-02-03T02:05:15.001Z,968.34
2018-02-03T02:06:14.918Z,968.24
2018-02-03T02:07:14.837Z,968.29
2018-02-03T02:08:14.751Z,968.24
2018-02-03T02:09:14.666Z,968.24
2018-02-03T02:10:14.581Z,968.20
2018-02-03T02:11:14.496Z,968.24
2018-02-03T02:12:14.409Z,968.19
2018-02-03T02:13:14.324Z,968.20
2018-02-03T02:14:14.243Z,968.22
2018-02-03T02:15:14.160Z,968.22
2018-02-03T02:16:14.086Z,968.20
2018-02-03T02:17:13.996Z,968.16
2018-02-03T02:18:13.906Z,968.20
2018-02-03T02:19:13.817Z,968.20
2018-02-03T02:20:13.755Z,968.20
2018-02-03T02:21:13.654Z,968.20
2018-02-03T02:22:13.568Z,968.20
2018-02-03T02:23:13.482Z,968.20
2018-02-03T02:24:13.396Z,968.24
2018-02-03T02:25:13.314Z,968.25
2018-02-03T02:26:13.243Z,968.26
2018-02-03T02:27:13.144Z,968.24
2018-02-03T02:28:13.061Z,968.28
2018-02-03T02:29:12.984Z,968.24
2018-02-03T02:30:12.892Z,968.28
2018-02-03T02:31:12.804Z,968.28
2018-02-03T02:32:12.721Z,968.28
2018-02-03T02:33:12.635Z,968.29
2018-02-03T02:34:12.553Z,968.23
2018-02-03T02:35:12.466Z,968.23
2018-02-03T02:36:12.384Z,968.25
2018-02-03T02:37:12.299Z,968.24
2018-02-03T02:38:12.230Z,968.19
2018-02-03T02:39:12.128Z,968.19
2018-02-03T02:40:12.061Z,968.15
2018-02-03T02:41:11.961Z,968.12
2018-02-03T02:42:11.908Z,968.10
2018-02-03T02:43:11.793Z,968.13
2018-02-03T02:44:11.707Z,968.10
2018-02-03T02:45:11.621Z,968.07
2018-02-03T02:46:11.535Z,968.10
2018-02-03T02:47:11.452Z,968.11
2018-02-03T02:48:11.367Z,968.07
2018-02-03T02:49:11.295Z,968.08
2018-02-03T02:50:11.198Z,968.07
2018-02-03T02:51:11.119Z,968.07
2018-02-03T02:52:11.028Z,968.07
2018-02-03T02:53:10.947Z,968.10
2018-02-03T02:54:10.858Z,968.11
2018-02-03T02:55:10.777Z,968.06
2018-02-03T02:56:10.693Z,968.03
2018-02-03T02:57:10.607Z,968.04
2018-02-03T02:58:10.521Z,968.01
2018-02-03T02:59:10.437Z,968.03
2018-02-03T03:00:10.351Z,967.97
2018-02-03T03:01:10.267Z,967.97
2018-02-03T03:02:10.185Z,967.96
2018-02-03T03:03:10.097Z,967.95
2018-02-03T03:04:10.015Z,967.94
2018-02-03T03:05:09.926Z,967.91
2018-02-03T03:06:09.850Z,967.90
2018-02-03T03:07:09.759Z,967.90
2018-02-03T03:08:09.683Z,967.87
2018-02-03T03:09:09.590Z,967.92
2018-02-03T03:10:09.533Z,967.91
2018-02-03T03:11:09.422Z,967.92
2018-02-03T03:12:09.335Z,967.91
2018-02-03T03:13:09.257Z,967.91
2018-02-03T03:14:09.173Z,967.88
2018-02-03T03:15:09.082Z,967.90
2018-02-03T03:16:09.001Z,967.91
2018-02-03T03:17:08.914Z,967.89
2018-02-03T03:18:08.834Z,967.90
2018-02-03T03:19:08.745Z,967.89
2018-02-03T03:20:08.668Z,967.83
2018-02-03T03:21:08.586Z,967.85
2018-02-03T03:22:08.492Z,967.85
2018-02-03T03:23:08.407Z,967.84
2018-02-03T03:24:08.320Z,967.84
2018-02-03T03:25:08.238Z,967.87
2018-02-03T03:26:08.154Z,967.85
2018-02-03T03:27:08.107Z,967.81
2018-02-03T03:28:07.997Z,967.80
2018-02-03T03:29:07.902Z,967.83
2018-02-03T03:30:07.820Z,967.83
2018-02-03T03:31:07.740Z,967.87
2018-02-03T03:32:07.652Z,967.81
2018-02-03T03:33:07.560Z,967.89
2018-02-03T03:34:07.477Z,967.90
2018-02-03T03:35:07.396Z,967.91
2018-02-03T03:36:07.309Z,967.89
2018-02-03T03:37:07.226Z,967.91
2018-02-03T03:38:07.142Z,967.94
2018-02-03T03:39:07.061Z,967.91
2018-02-03T03:40:06.984Z,967.88
2018-02-03T03:41:06.890Z,967.85
2018-02-03T03:42:06.803Z,967.84
2018-02-03T03:43:06.732Z,967.82
2018-02-03T03:44:06.635Z,967.81
2018-02-03T03:45:06.549Z,967.81
2018-02-03T03:46:06.468Z,967.83
2018-02-03T03:47:06.385Z,967.82
2018-02-03T03:48:06.301Z,967.87
2018-02-03T03:49:06.211Z,967.85
2018-02-03T03:50:06.133Z,967.88
2018-02-03T03:51:06.044Z,967.85
2018-02-03T03:52:05.958Z,967.88
2018-02-03T03:53:05.874Z,967.85
2018-02-03T03:54:05.789Z,967.89
2018-02-03T03:55:05.705Z,967.89
2018-02-03T03:56:05.618Z,967.85
2018-02-03T03:57:05.537Z,967.83
2018-02-03T03:58:05.462Z,967.85
2018-02-03T03:59:05.391Z,967.86
2018-02-03T04:00:05.285Z,967.92
2018-02-03T04:01:05.201Z,967.90
2018-02-03T04:02:05.113Z,967.90
2018-02-03T04:03:05.030Z,967.93
2018-02-03T04:04:04.944Z,967.92
2018-02-03T04:05:04.858Z,967.98
2018-02-03T04:06:04.774Z,967.98
2018-02-03T04:07:04.689Z,968.03
2018-02-03T04:08:04.608Z,967.99
2018-02-03T04:09:04.523Z,968.05
2018-02-03T04:10:04.438Z,968.05
2018-02-03T04:11:04.352Z,968.05
2018-02-03T04:12:04.269Z,968.02
2018-02-03T04:13:04.184Z,968.03
2018-02-03T04:14:04.099Z,967.99
2018-02-03T04:15:04.014Z,967.97
2018-02-03T04:16:03.930Z,967.99
2018-02-03T04:17:03.845Z,967.99
2018-02-03T04:18:03.773Z,968.02
2018-02-03T04:19:03.680Z,967.99
2018-02-03T04:20:03.590Z,968.03
2018-02-03T04:21:03.508Z,968.02
2018-02-03T04:22:03.422Z,968.02
2018-02-03T04:23:03.337Z,967.99
2018-02-03T04:24:03.252Z,967.96
2018-02-03T04:25:03.170Z,967.92
2018-02-03T04:26:03.084Z,967.94
2018-02-03T04:27:03.001Z,967.92
2018-02-03T04:28:02.929Z,967.92
2018-02-03T04:29:02.837Z,967.92
2018-02-03T04:30:02.749Z,967.92
2018-02-03T04:31:02.663Z,967.89
2018-02-03T04:32:02.575Z,967.89
2018-02-03T04:33:02.501Z,967.90
2018-02-03T04:34:02.409Z,967.92
2018-02-03T04:35:02.323Z,967.89
2018-02-03T04:36:02.238Z,967.90
2018-02-03T04:37:02.167Z,967.87
2018-02-03T04:38:02.078Z,967.85
2018-02-03T04:39:02.005Z,967.85
2018-02-03T04:40:01.912Z,967.87
2018-02-03T04:41:01.818Z,967.85
2018-02-03T04:42:01.732Z,967.86
2018-02-03T04:43:01.645Z,967.84
2018-02-03T04:44:01.563Z,967.86
2018-02-03T04:45:01.495Z,967.86
2018-02-03T04:46:01.393Z,967.86
2018-02-03T04:47:01.392Z,967.81
2018-02-03T04:48:01.235Z,967.83
2018-02-03T04:49:01.149Z,967.79
2018-02-03T04:50:01.053Z,967.86
2018-02-03T04:51:00.968Z,967.84
2018-02-03T04:52:00.882Z,967.80
2018-02-03T04:53:00.831Z,967.81
2018-02-03T04:54:00.730Z,967.85
2018-02-03T04:55:00.630Z,967.81
2018-02-03T04:56:00.556Z,967.79
2018-02-03T04:57:00.464Z,967.80
2018-02-03T04:58:00.466Z,967.76
2018-02-03T04:59:00.288Z,967.79
2018-02-03T05:00:00.204Z,967.77
2018-02-03T05:01:00.127Z,967.76
2018-02-03T05:02:00.037Z,967.72
2018-02-03T05:02:59.952Z,967.70
2018-02-03T05:03:59.868Z,967.68
2018-02-03T05:04:59.781Z,967.68
2018-02-03T05:05:59.712Z,967.70
2018-02-03T05:06:59.610Z,967.60
2018-02-03T05:07:59.532Z,967.61
2018-02-03T05:08:59.441Z,967.55
2018-02-03T05:09:59.357Z,967.61
2018-02-03T05:10:59.273Z,967.57
2018-02-03T05:11:59.185Z,967.59
2018-02-03T05:12:59.103Z,967.56
2018-02-03T05:13:59.043Z,967.54
2018-02-03T05:14:58.931Z,967.52
2018-02-03T05:15:58.848Z,967.55
2018-02-03T05:16:58.761Z,967.51
2018-02-03T05:17:58.677Z,967.50
2018-02-03T05:18:58.591Z,967.48
2018-02-03T05:19:58.508Z,967.46
2018-02-03T05:20:58.433Z,967.47
2018-02-03T05:21:58.345Z,967.46
2018-02-03T05:22:58.257Z,967.43
2018-02-03T05:23:58.168Z,967.43
2018-02-03T05:24:58.087Z,967.41
2018-02-03T05:25:58.006Z,967.45
2018-02-03T05:26:57.915Z,967.48
2018-02-03T05:27:57.873Z,967.45
2018-02-03T05:28:57.745Z,967.46
2018-02-03T05:29:57.677Z,967.47
2018-02-03T05:30:57.575Z,967.46
2018-02-03T05:31:57.504Z,967.46
2018-02-03T05:32:57.404Z,967.47
2018-02-03T05:33:57.331Z,967.51
2018-02-03T05:34:57.241Z,967.48
2018-02-03T05:35:57.153Z,967.49
2018-02-03T05:36:57.123Z,967.52
2018-02-03T05:37:56.996Z,967.55
2018-02-03T05:38:56.909Z,967.56
2018-02-03T05:39:56.812Z,967.57
2018-02-03T05:40:56.742Z,967.57
2018-02-03T05:41:56.646Z,967.60
2018-02-03T05:42:56.562Z,967.56
2018-02-03T05:43:56.470Z,967.58
2018-02-03T05:44:56.388Z,967.59
2018-02-03T05:45:56.356Z,967.60
2018-02-03T05:46:56.218Z,967.61
2018-02-03T05:47:56.135Z,967.61
2018-02-03T05:48:56.094Z,967.62
2018-02-03T05:49:55.990Z,967.61
2018-02-03T05:50:55.893Z,967.64
2018-02-03T05:51:55.795Z,967.63
2018-02-03T05:52:55.710Z,967.64
2018-02-03T05:53:55.625Z,967.67
2018-02-03T05:54:55.544Z,967.70
2018-02-03T05:55:55.456Z,967.68
2018-02-03T05:56:55.370Z,967.67
2018-02-03T05:57:55.287Z,967.66
2018-02-03T05:58:55.203Z,967.69
2018-02-03T05:59:55.118Z,967.70
2018-02-03T06:00:55.040Z,967.74
2018-02-03T06:01:54.959Z,967.78
2018-02-03T06:02:54.866Z,967.76
2018-02-03T06:03:54.779Z,967.80
2018-02-03T06:04:54.693Z,967.78
2018-02-03T06:05:54.610Z,967.80
2018-02-03T06:06:54.526Z,967.79
2018-02-03T06:07:54.439Z,967.78
2018-02-03T06:08:54.356Z,967.75
2018-02-03T06:09:54.274Z,967.75
2018-02-03T06:10:54.198Z,967.80
2018-02-03T06:11:54.104Z,967.77
2018-02-03T06:12:54.018Z,967.78
2018-02-03T06:13:53.938Z,967.78
2018-02-03T06:14:53.850Z,967.79
2018-02-03T06:15:53.763Z,967.79
2018-02-03T06:16:53.703Z,967.76
2018-02-03T06:17:53.596Z,967.73
2018-02-03T06:18:53.510Z,967.73
2018-02-03T06:19:53.431Z,967.75
2018-02-03T06:20:53.355Z,967.73
2018-02-03T06:21:53.263Z,967.74
2018-02-03T06:22:53.172Z,967.77
2018-02-03T06:23:53.086Z,967.76
2018-02-03T06:24:53.001Z,967.72
2018-02-03T06:25:52.921Z,967.75
2018-02-03T06:26:52.834Z,967.73
2018-02-03T06:27:52.749Z,967.72
2018-02-03T06:28:52.664Z,967.71
2018-02-03T06:29:52.596Z,967.73
2018-02-03T06:30:52.518Z,967.76
2018-02-03T06:31:52.416Z,967.77
2018-02-03T06:32:52.338Z,967.73
2018-02-03T06:33:52.269Z,967.71
2018-02-03T06:34:52.157Z,967.74
2018-02-03T06:35:52.072Z,967.69
2018-02-03T06:36:51.993Z,967.69
2018-02-03T06:37:51.903Z,967.70
2018-02-03T06:38:51.841Z,967.70
2018-02-03T06:39:51.746Z,967.74
2018-02-03T06:40:51.667Z,967.68
2018-02-03T06:41:51.565Z,967.69
2018-02-03T06:42:51.484Z,967.69
2018-02-03T06:43:51.406Z,967.66
2018-02-03T06:44:51.315Z,967.69
2018-02-03T06:45:51.224Z,967.67
2018-02-03T06:46:51.139Z,967.64
2018-02-03T06:47:51.057Z,967.66
2018-02-03T06:48:50.969Z,967.66
2018-02-03T06:49:50.889Z,967.67
2018-02-03T06:50:50.802Z,967.68
2018-02-03T06:51:50.714Z,967.64
2018-02-03T06:52:50.633Z,967.67
2018-02-03T06:53:50.547Z,967.66
2018-02-03T06:54:50.463Z,967.65
2018-02-03T06:55:50.403Z,967.72
2018-02-03T06:56:50.292Z,967.69
2018-02-03T06:57:50.207Z,967.71
2018-02-03T06:58:50.125Z,967.72
2018-02-03T06:59:50.042Z,967.70
2018-02-03T07:00:49.955Z,967.73
2018-02-03T07:01:49.868Z,967.72
2018-02-03T07:02:49.786Z,967.74
2018-02-03T07:03:49.699Z,967.72
2018-02-03T07:04:49.635Z,967.75
2018-02-03T07:05:49.540Z,967.71
2018-02-03T07:06:49.448Z,967.69
2018-02-03T07:07:49.364Z,967.65
2018-02-03T07:08:49.276Z,967.62
2018-02-03T07:09:49.191Z,967.61
2018-02-03T07:10:49.110Z,967.66
2018-02-03T07:11:49.022Z,967.64
2018-02-03T07:12:48.938Z,967.69
2018-02-03T07:13:48.856Z,967.64
2018-02-03T07:14:48.768Z,967.67
2018-02-03T07:15:48.685Z,967.64
2018-02-03T07:16:48.597Z,967.61
2018-02-03T07:17:48.519Z,967.60
2018-02-03T07:18:48.429Z,967.58
2018-02-03T07:19:48.343Z,967.58
2018-02-03T07:20:48.261Z,967.58
2018-02-03T07:21:48.189Z,967.57
2018-02-03T07:22:48.100Z,967.52
2018-02-03T07:23:48.007Z,967.53
2018-02-03T07:24:47.924Z,967.45
2018-02-03T07:25:47.846Z,967.42
2018-02-03T07:26:47.777Z,967.38
2018-02-03T07:27:47.672Z,967.38
2018-02-03T07:28:47.584Z,967.36
2018-02-03T07:29:47.496Z,967.36
2018-02-03T07:30:47.421Z,967.35
2018-02-03T07:31:47.348Z,967.30
2018-02-03T07:32:47.266Z,967.33
2018-02-03T07:33:47.167Z,967.32
2018-02-03T07:34:47.075Z,967.27
2018-02-03T07:35:47.005Z,967.26
2018-02-03T07:36:46.912Z,967.27
2018-02-03T07:37:46.822Z,967.24
2018-02-03T07:38:46.737Z,967.26
2018-02-03T07:39:46.652Z,967.26
2018-02-03T07:40:46.579Z,967.23
2018-02-03T07:41:46.486Z,967.18
2018-02-03T07:42:46.396Z,967.19
2018-02-03T07:43:46.315Z,967.22
2018-02-03T07:44:46.257Z,967.20
2018-02-03T07:45:46.151Z,967.19
2018-02-03T07:46:46.065Z,967.20
2018-02-03T07:47:45.976Z,967.23
2018-02-03T07:48:45.888Z,967.26
2018-02-03T07:49:45.817Z,967.31
2018-02-03T07:50:45.734Z,967.32
2018-02-03T07:51:45.643Z,967.36
2018-02-03T07:52:45.569Z,967.35
2018-02-03T07:53:45.466Z,967.35
2018-02-03T07:54:45.385Z,967.35
2018-02-03T07:55:45.298Z,967.34
2018-02-03T07:56:45.214Z,967.34
2018-02-03T07:57:45.150Z,967.37
2018-02-03T07:58:45.046Z,967.37
2018-02-03T07:59:44.961Z,967.34
2018-02-03T08:00:44.874Z,967.40
2018-02-03T08:01:44.788Z,967.38
2018-02-03T08:02:44.721Z,967.41
2018-02-03T08:03:44.620Z,967.42
2018-02-03T08:04:44.534Z,967.41
2018-02-03T08:05:44.458Z,967.39
2018-02-03T08:06:44.367Z,967.44
2018-02-03T08:07:44.280Z,967.50
2018-02-03T08:08:44.197Z,967.48
2018-02-03T08:09:44.114Z,967.50
2018-02-03T08:10:44.028Z,967.48
2018-02-03T08:11:43.941Z,967.48
2018-02-03T08:12:43.879Z,967.53
2018-02-03T08:13:43.774Z,967.54
2018-02-03T08:14:43.689Z,967.53
2018-02-03T08:15:43.607Z,967.50
2018-02-03T08:16:43.524Z,967.53
2018-02-03T08:17:43.435Z,967.54
2018-02-03T08:18:43.350Z,967.54
2018-02-03T08:19:43.261Z,967.54
2018-02-03T08:20:43.176Z,967.59
2018-02-03T08:21:43.096Z,967.59
2018-02-03T08:22:43.009Z,967.60
2018-02-03T08:23:42.929Z,967.63
2018-02-03T08:24:42.841Z,967.60
2018-02-03T08:25:42.764Z,967.58
2018-02-03T08:26:42.669Z,967.58
2018-02-03T08:27:42.634Z,967.56
2018-02-03T08:28:42.505Z,967.56
2018-02-03T08:29:42.436Z,967.58
2018-02-03T08:30:42.337Z,967.54
2018-02-03T08:31:42.244Z,967.54
2018-02-03T08:32:42.162Z,967.51
2018-02-03T08:33:42.077Z,967.47
2018-02-03T08:34:41.997Z,967.44
2018-02-03T08:35:41.906Z,967.46
2018-02-03T08:36:41.824Z,967.48
2018-02-03T08:37:41.769Z,967.47
2018-02-03T08:38:41.656Z,967.48
2018-02-03T08:39:41.569Z,967.47
2018-02-03T08:40:41.497Z,967.46
2018-02-03T08:41:41.417Z,967.47
2018-02-03T08:42:41.316Z,967.44
2018-02-03T08:43:41.232Z,967.39
2018-02-03T08:44:41.144Z,967.44
2018-02-03T08:45:41.063Z,967.42
2018-02-03T08:46:40.976Z,967.45
2018-02-03T08:47:40.899Z,967.46
2018-02-03T08:48:40.810Z,967.44
2018-02-03T08:49:40.725Z,967.45
2018-02-03T08:50:40.638Z,967.44
2018-02-03T08:51:40.559Z,967.41
2018-02-03T08:52:40.471Z,967.43
2018-02-03T08:53:40.389Z,967.41
2018-02-03T08:54:40.300Z,967.41
2018-02-03T08:55:40.217Z,967.41
2018-02-03T08:56:40.132Z,967.39
2018-02-03T08:57:40.046Z,967.38
2018-02-03T08:58:39.980Z,967.39
2018-02-03T08:59:39.893Z,967.39
2018-02-03T09:00:39.794Z,967.36
2018-02-03T09:01:39.710Z,967.37
2018-02-03T09:02:39.624Z,967.34
2018-02-03T09:03:39.542Z,967.36
2018-02-03T09:04:39.457Z,967.37
2018-02-03T09:05:39.371Z,967.34
2018-02-03T09:06:39.287Z,967.37
2018-02-03T09:07:39.200Z,967.36
2018-02-03T09:08:39.122Z,967.33
2018-02-03T09:09:39.039Z,967.32
2018-02-03T09:10:38.951Z,967.33
2018-02-03T09:11:38.862Z,967.32
2018-02-03T09:12:38.787Z,967.32
2018-02-03T09:13:38.697Z,967.33
2018-02-03T09:14:38.610Z,967.29
2018-02-03T09:15:38.528Z,967.30
2018-02-03T09:16:38.441Z,967.27
2018-02-03T09:17:38.360Z,967.27
2018-02-03T09:18:38.274Z,967.22
2018-02-03T09:19:38.188Z,967.18
2018-02-03T09:20:38.104Z,967.20
2018-02-03T09:21:38.020Z,967.18
2018-02-03T09:22:37.937Z,967.23
2018-02-03T09:23:37.857Z,967.22
2018-02-03T09:24:37.767Z,967.22
2018-02-03T09:25:37.682Z,967.20
2018-02-03T09:26:37.601Z,967.22
2018-02-03T09:27:37.513Z,967.23
2018-02-03T09:28:37.438Z,967.27
2018-02-03T09:29:37.346Z,967.26
2018-02-03T09:30:37.261Z,967.26
2018-02-03T09:31:37.175Z,967.28
2018-02-03T09:32:37.091Z,967.23
2018-02-03T09:33:37.016Z,967.27
2018-02-03T09:34:36.936Z,967.25
2018-02-03T09:35:36.836Z,967.28
2018-02-03T09:36:36.764Z,967.27
2018-02-03T09:37:36.669Z,967.28
2018-02-03T09:38:36.590Z,967.25
2018-02-03T09:39:36.505Z,967.27
2018-02-03T09:40:36.419Z,967.26
2018-02-03T09:41:36.332Z,967.26
2018-02-03T09:42:36.251Z,967.25
2018-02-03T09:43:36.172Z,967.26
2018-02-03T09:44:36.080Z,967.28
2018-02-03T09:45:35.999Z,967.29
2018-02-03T09:46:35.914Z,967.30
2018-02-03T09:47:35.832Z,967.29
2018-02-03T09:48:35.746Z,967.28
2018-02-03T09:49:35.661Z,967.26
2018-02-03T09:50:35.578Z,967.25
2018-02-03T09:51:35.495Z,967.32
2018-02-03T09:52:35.408Z,967.27
2018-02-03T09:53:35.328Z,967.27
2018-02-03T09:54:35.243Z,967.25
2018-02-03T09:55:35.156Z,967.25
2018-02-03T09:56:35.076Z,967.26
2018-02-03T09:57:34.990Z,967.23
2018-02-03T09:58:34.910Z,967.31
2018-02-03T09:59:34.822Z,967.26
2018-02-03T10:00:34.747Z,967.29
2018-02-03T10:01:34.654Z,967.21
2018-02-03T10:02:34.571Z,967.28
2018-02-03T10:03:34.488Z,967.25
2018-02-03T10:04:34.403Z,967.30
2018-02-03T10:05:34.320Z,967.25
2018-02-03T10:06:34.234Z,967.30
2018-02-03T10:07:34.152Z,967.26
2018-02-03T10:08:34.068Z,967.23
2018-02-03T10:09:33.987Z,967.32
2018-02-03T10:10:33.899Z,967.25
2018-02-03T10:11:33.812Z,967.27
2018-02-03T10:12:33.729Z,967.23
2018-02-03T10:13:33.653Z,967.24
2018-02-03T10:14:33.573Z,967.28
2018-02-03T10:15:33.488Z,967.27
2018-02-03T10:16:33.396Z,967.25
2018-02-03T10:17:33.315Z,967.29
2018-02-03T10:18:33.231Z,967.26
2018-02-03T10:19:33.145Z,967.27
2018-02-03T10:20:33.061Z,967.28
2018-02-03T10:21:32.976Z,967.25
2018-02-03T10:22:32.894Z,967.23
2018-02-03T10:23:32.813Z,967.17
2018-02-03T10:24:32.727Z,967.20
2018-02-03T10:25:32.644Z,967.15
2018-02-03T10:26:32.567Z,967.14
2018-02-03T10:27:32.473Z,967.17
2018-02-03T10:28:32.391Z,967.15
2018-02-03T10:29:32.312Z,967.13
2018-02-03T10:30:32.221Z,967.09
2018-02-03T10:31:32.139Z,967.11
2018-02-03T10:32:32.054Z,967.11
2018-02-03T10:33:31.979Z,967.11
2018-02-03T10:34:31.887Z,967.12
2018-02-03T10:35:31.804Z,967.07
2018-02-03T10:36:31.729Z,967.10
2018-02-03T10:37:31.638Z,967.06
2018-02-03T10:38:31.555Z,967.05
2018-02-03T10:39:31.473Z,967.02
2018-02-03T10:40:31.390Z,967.01
2018-02-03T10:41:31.298Z,966.99
2018-02-03T10:42:31.218Z,967.00
2018-02-03T10:43:31.139Z,966.96
2018-02-03T10:44:31.071Z,966.93
2018-02-03T10:45:30.962Z,966.93
2018-02-03T10:46:30.879Z,966.86
2018-02-03T10:47:30.798Z,966.95
2018-02-03T10:48:30.708Z,966.88
2018-02-03T10:49:30.626Z,966.87
2018-02-03T10:50:30.545Z,966.89
2018-02-03T10:51:30.458Z,966.81
2018-02-03T10:52:30.376Z,966.83
2018-02-03T10:53:30.304Z,966.88
2018-02-03T10:54:30.214Z,966.83
2018-02-03T10:55:30.128Z,966.84
2018-02-03T10:56:30.038Z,966.86
2018-02-03T10:57:29.954Z,966.85
2018-02-03T10:58:29.929Z,966.82
2018-02-03T10:59:29.789Z,966.79
2018-02-03T11:00:29.717Z,966.78
2018-02-03T11:01:29.648Z,966.77
2018-02-03T11:02:29.538Z,966.75
2018-02-03T11:03:29.450Z,966.70
2018-02-03T11:04:29.366Z,966.73
2018-02-03T11:05:29.282Z,966.78
2018-02-03T11:06:29.199Z,966.73
2018-02-03T11:07:29.114Z,966.77
2018-02-03T11:08:29.034Z,966.72
2018-02-03T11:09:29.792Z,966.75
2018-02-03T11:10:28.865Z,966.72
2018-02-03T11:11:28.782Z,966.71
2018-02-03T11:12:28.700Z,966.66
2018-02-03T11:13:28.615Z,966.64
2018-02-03T11:14:28.578Z,966.68
2018-02-03T11:15:28.444Z,966.69
2018-02-03T11:16:28.359Z,966.66
2018-02-03T11:17:28.282Z,966.65
2018-02-03T11:18:28.194Z,966.70
2018-02-03T11:19:28.112Z,966.70
2018-02-03T11:20:28.022Z,966.71
2018-02-03T11:21:27.938Z,966.70
2018-02-03T11:22:27.855Z,966.69
2018-02-03T11:23:27.774Z,966.70
2018-02-03T11:24:27.687Z,966.68
2018-02-03T11:25:27.615Z,966.66
2018-02-03T11:26:27.522Z,966.67
2018-02-03T11:27:27.435Z,966.71
2018-02-03T11:28:27.376Z,966.64
2018-02-03T11:29:27.267Z,966.67
2018-02-03T11:30:27.184Z,966.66
2018-02-03T11:31:27.104Z,966.64
2018-02-03T11:32:27.015Z,966.66
2018-02-03T11:33:26.936Z,966.63
2018-02-03T11:34:26.850Z,966.67
2018-02-03T11:35:26.764Z,966.63
2018-02-03T11:36:26.689Z,966.64
2018-02-03T11:37:26.596Z,966.65
2018-02-03T11:38:26.515Z,966.63
2018-02-03T11:39:26.426Z,966.64
2018-02-03T11:40:26.344Z,966.62
2018-02-03T11:41:26.265Z,966.60
2018-02-03T11:42:26.187Z,966.57
2018-02-03T11:43:26.099Z,966.58
2018-02-03T11:44:26.009Z,966.56
2018-02-03T11:45:25.923Z,966.58
2018-02-03T11:46:25.845Z,966.56
2018-02-03T11:47:25.757Z,966.54
2018-02-03T11:48:25.670Z,966.56
2018-02-03T11:49:25.591Z,966.52
2018-02-03T11:50:25.503Z,966.53
2018-02-03T11:51:25.422Z,966.53
2018-02-03T11:52:25.339Z,966.51
2018-02-03T11:53:25.293Z,966.46
2018-02-03T11:54:25.174Z,966.49
2018-02-03T11:55:25.086Z,966.47
2018-02-03T11:56:25.009Z,966.47
2018-02-03T11:57:24.917Z,966.53
2018-02-03T11:58:24.836Z,966.51
2018-02-03T11:59:24.748Z,966.50
2018-02-03T12:00:24.668Z,966.58
2018-02-03T12:01:24.581Z,966.54
2018-02-03T12:02:24.496Z,966.53
2018-02-03T12:03:24.412Z,966.50
2018-02-03T12:04:24.336Z,966.47
2018-02-03T12:05:24.247Z,966.48
2018-02-03T12:06:24.165Z,966.49
2018-02-03T12:07:24.085Z,966.49
2018-02-03T12:08:23.995Z,966.50
2018-02-03T12:09:23.915Z,966.55
2018-02-03T12:10:23.832Z,966.57
2018-02-03T12:11:23.745Z,966.53
2018-02-03T12:12:23.666Z,966.59
2018-02-03T12:13:23.576Z,966.60
2018-02-03T12:14:23.491Z,966.65
2018-02-03T12:15:23.407Z,966.65
2018-02-03T12:16:23.328Z,966.69
2018-02-03T12:17:23.241Z,966.62
2018-02-03T12:18:23.156Z,966.70
2018-02-03T12:19:23.098Z,966.60
2018-02-03T12:20:22.992Z,966.64
2018-02-03T12:21:22.912Z,966.61
2018-02-03T12:22:22.832Z,966.60
2018-02-03T12:23:22.737Z,966.68
2018-02-03T12:24:22.654Z,966.65
2018-02-03T12:25:22.570Z,966.67
2018-02-03T12:26:22.490Z,966.64
2018-02-03T12:27:22.402Z,966.64